createdAt,value
2018-09-30T00:01:13.931Z,68.83
2018-09-30T00:03:42.358Z,68.45
2018-09-30T00:06:10.862Z,68.28
2018-09-30T00:08:39.267Z,68.10
2018-09-30T00:11:07.681Z,68.04
2018-09-30T00:13:36.174Z,68.09
2018-09-30T00:16:04.604Z,67.58
2018-09-30T00:18:32.995Z,67.61
2018-09-30T00:21:01.600Z,67.64
2018-09-30T00:23:34.132Z,67.65
2018-09-30T00:26:07.758Z,67.65
2018-09-30T00:28:36.580Z,67.48
2018-09-30T00:31:05.274Z,67.46
2018-09-30T00:33:33.727Z,67.69
2018-09-30T00:36:02.313Z,67.23
2018-09-30T00:38:31.333Z,67.38
2018-09-30T00:40:59.825Z,67.23
2018-09-30T00:43:28.675Z,66.72
2018-09-30T00:45:57.174Z,66.44
2018-09-30T00:48:25.602Z,66.58
2018-09-30T00:50:54.339Z,66.65
2018-09-30T00:53:22.753Z,66.74
2018-09-30T00:55:51.338Z,66.80
2018-09-30T00:58:19.824Z,66.96
2018-09-30T01:00:48.223Z,66.76
2018-09-30T01:03:16.640Z,66.76
2018-09-30T01:05:45.322Z,66.75
2018-09-30T01:08:13.715Z,66.75
2018-09-30T01:10:42.211Z,66.62
2018-09-30T01:13:10.806Z,66.71
2018-09-30T01:15:39.194Z,66.68
2018-09-30T01:18:07.634Z,66.37
2018-09-30T01:20:36.139Z,66.93
2018-09-30T01:23:04.625Z,66.80
2018-09-30T01:25:33.381Z,66.99
2018-09-30T01:28:02.263Z,67.04
2018-09-30T01:30:30.683Z,67.31
2018-09-30T01:32:59.142Z,67.30
2018-09-30T01:35:27.903Z,67.44
2018-09-30T01:37:56.299Z,67.67
2018-09-30T01:40:24.758Z,67.66
2018-09-30T01:42:53.354Z,67.45
2018-09-30T01:45:21.752Z,67.72
2018-09-30T01:47:50.229Z,67.72
2018-09-30T01:50:18.878Z,67.58
2018-09-30T01:52:52.610Z,67.72
2018-09-30T01:55:21.102Z,67.54
2018-09-30T01:57:49.527Z,68.03
2018-09-30T02:00:18.567Z,67.77
2018-09-30T02:02:47.441Z,67.84
2018-09-30T02:05:16.430Z,68.16
2018-09-30T02:07:45.362Z,67.87
2018-09-30T02:10:14.118Z,67.62
2018-09-30T02:12:42.593Z,67.43
2018-09-30T02:15:11.038Z,67.55
2018-09-30T02:17:39.865Z,67.56
2018-09-30T02:20:08.287Z,67.13
2018-09-30T02:22:36.754Z,67.15
2018-09-30T02:25:05.946Z,66.99
2018-09-30T02:27:34.367Z,66.83
2018-09-30T02:30:02.965Z,66.86
2018-09-30T02:32:31.659Z,66.73
2018-09-30T02:35:00.083Z,66.75
2018-09-30T02:37:28.500Z,66.73
2018-09-30T02:39:57.108Z,66.85
2018-09-30T02:42:25.515Z,66.67
2018-09-30T02:44:53.943Z,66.60
2018-09-30T02:47:22.546Z,66.55
2018-09-30T02:49:50.950Z,66.11
2018-09-30T02:52:19.393Z,66.19
2018-09-30T02:54:47.992Z,66.44
2018-09-30T02:57:16.378Z,66.30
2018-09-30T02:59:44.879Z,66.55
2018-09-30T03:02:13.837Z,66.68
2018-09-30T03:04:42.229Z,66.85
2018-09-30T03:07:15.843Z,66.79
2018-09-30T03:09:44.463Z,66.77
2018-09-30T03:12:12.854Z,66.87
2018-09-30T03:14:41.271Z,67.01
2018-09-30T03:17:09.841Z,67.09
2018-09-30T03:19:38.242Z,67.12
2018-09-30T03:22:06.805Z,66.85
2018-09-30T03:24:35.290Z,66.97
2018-09-30T03:27:04.032Z,66.85
2018-09-30T03:29:32.423Z,66.75
2018-09-30T03:32:00.879Z,66.98
2018-09-30T03:34:29.271Z,66.79
2018-09-30T03:36:57.730Z,66.75
2018-09-30T03:39:26.600Z,66.90
2018-09-30T03:41:55.003Z,67.21
2018-09-30T03:44:23.420Z,67.04
2018-09-30T03:46:52.235Z,67.19
2018-09-30T03:49:20.808Z,67.06
2018-09-30T03:51:56.094Z,67.26
2018-09-30T03:54:24.498Z,67.23
2018-09-30T03:56:52.919Z,67.26
2018-09-30T03:59:21.920Z,67.19
2018-09-30T04:01:50.323Z,66.75
2018-09-30T04:04:18.722Z,67.03
2018-09-30T04:06:47.298Z,67.11
2018-09-30T04:09:15.693Z,66.62
2018-09-30T04:11:44.200Z,66.89
2018-09-30T04:14:12.842Z,66.96
2018-09-30T04:16:41.258Z,66.75
2018-09-30T04:19:09.714Z,67.02
2018-09-30T04:21:38.550Z,67.26
2018-09-30T04:24:10.205Z,66.91
2018-09-30T04:26:39.922Z,67.03
2018-09-30T04:29:08.975Z,67.05
2018-09-30T04:31:37.439Z,66.62
2018-09-30T04:34:06.206Z,66.86
2018-09-30T04:36:35.555Z,66.83
2018-09-30T04:39:05.161Z,67.07
2018-09-30T04:41:33.626Z,67.29
2018-09-30T04:44:02.148Z,66.80
2018-09-30T04:46:30.575Z,67.11
2018-09-30T04:48:59.060Z,67.39
2018-09-30T04:51:27.876Z,67.08
2018-09-30T04:53:56.667Z,67.54
2018-09-30T04:56:25.095Z,67.40
2018-09-30T04:58:54.250Z,67.50
2018-09-30T05:01:22.822Z,67.17
2018-09-30T05:03:51.406Z,67.57
2018-09-30T05:06:20.305Z,67.31
2018-09-30T05:08:48.703Z,67.28
2018-09-30T05:11:17.220Z,67.53
2018-09-30T05:13:45.778Z,67.31
2018-09-30T05:16:14.217Z,67.48
2018-09-30T05:18:42.674Z,67.74
2018-09-30T05:21:11.494Z,67.94
2018-09-30T05:23:39.947Z,67.80
2018-09-30T05:26:08.399Z,67.81
2018-09-30T05:28:37.312Z,67.81
2018-09-30T05:31:05.869Z,67.50
2018-09-30T05:33:34.437Z,67.85
2018-09-30T05:36:04.274Z,67.51
2018-09-30T05:38:32.710Z,67.40
2018-09-30T05:41:01.157Z,67.71
2018-09-30T05:43:29.663Z,67.48
2018-09-30T05:45:58.114Z,67.72
2018-09-30T05:48:26.551Z,67.67
2018-09-30T05:50:55.404Z,67.76
2018-09-30T05:53:23.825Z,67.25
2018-09-30T05:55:52.390Z,67.58
2018-09-30T05:58:20.922Z,67.72
2018-09-30T06:00:49.297Z,67.96
2018-09-30T06:03:17.755Z,67.75
2018-09-30T06:05:46.224Z,67.83
2018-09-30T06:08:14.729Z,67.78
2018-09-30T06:10:43.195Z,67.70
2018-09-30T06:13:12.043Z,68.06
2018-09-30T06:15:40.495Z,67.99
2018-09-30T06:18:09.058Z,67.99
2018-09-30T06:20:37.794Z,68.01
2018-09-30T06:23:06.315Z,68.07
2018-09-30T06:25:34.759Z,68.07
2018-09-30T06:28:03.331Z,68.01
2018-09-30T06:30:31.754Z,68.50
2018-09-30T06:33:00.215Z,68.60
2018-09-30T06:35:28.719Z,68.38
2018-09-30T06:37:57.339Z,68.54
2018-09-30T06:40:25.776Z,68.63
2018-09-30T06:42:54.269Z,68.46
2018-09-30T06:45:22.730Z,68.66
2018-09-30T06:47:51.118Z,68.78
2018-09-30T06:50:19.614Z,68.77
2018-09-30T06:52:48.062Z,68.97
2018-09-30T06:55:16.950Z,68.75
2018-09-30T06:57:45.438Z,68.85
2018-09-30T07:00:13.903Z,68.93
2018-09-30T07:02:42.366Z,69.09
2018-09-30T07:05:11.070Z,68.89
2018-09-30T07:07:39.464Z,69.00
2018-09-30T07:10:07.964Z,68.74
2018-09-30T07:12:36.458Z,68.49
2018-09-30T07:15:04.906Z,68.62
2018-09-30T07:17:33.352Z,67.98
2018-09-30T07:20:02.338Z,67.68
2018-09-30T07:22:31.123Z,67.54
2018-09-30T07:24:59.550Z,67.75
2018-09-30T07:27:28.310Z,67.77
2018-09-30T07:29:56.740Z,67.70
2018-09-30T07:32:25.602Z,67.32
2018-09-30T07:34:54.446Z,67.44
2018-09-30T07:37:22.838Z,67.53
2018-09-30T07:39:51.786Z,67.46
2018-09-30T07:42:20.278Z,67.90
2018-09-30T07:44:48.727Z,67.58
2018-09-30T07:47:17.196Z,67.14
2018-09-30T07:49:45.963Z,67.63
2018-09-30T07:52:14.495Z,67.52
2018-09-30T07:54:43.470Z,67.81
2018-09-30T07:57:12.315Z,67.83
2018-09-30T07:59:40.699Z,67.43
2018-09-30T08:02:09.141Z,67.69
2018-09-30T08:04:37.987Z,67.40
2018-09-30T08:07:06.525Z,67.63
2018-09-30T08:09:34.990Z,66.83
2018-09-30T08:12:03.722Z,67.67
2018-09-30T08:14:32.217Z,66.69
2018-09-30T08:17:00.705Z,66.46
2018-09-30T08:19:29.201Z,65.94
2018-09-30T08:21:57.879Z,66.21
2018-09-30T08:24:26.378Z,66.66
2018-09-30T08:26:55.547Z,65.70
2018-09-30T08:29:24.023Z,65.97
2018-09-30T08:31:52.575Z,65.27
2018-09-30T08:34:21.262Z,65.11
2018-09-30T08:36:49.684Z,64.77
2018-09-30T08:39:18.192Z,64.71
2018-09-30T08:41:46.995Z,65.05
2018-09-30T08:44:15.469Z,64.25
2018-09-30T08:46:43.935Z,63.65
2018-09-30T08:49:12.441Z,63.74
2018-09-30T08:51:40.823Z,63.88
2018-09-30T08:54:09.297Z,63.70
2018-09-30T08:56:38.006Z,63.63
2018-09-30T08:59:06.483Z,63.15
2018-09-30T09:01:34.910Z,63.27
2018-09-30T09:04:03.678Z,63.02
2018-09-30T09:06:32.103Z,63.27
2018-09-30T09:09:00.555Z,63.39
2018-09-30T09:11:29.323Z,62.82
2018-09-30T09:13:57.841Z,62.83
2018-09-30T09:16:26.398Z,63.12
2018-09-30T09:18:55.146Z,63.22
2018-09-30T09:21:23.577Z,62.91
2018-09-30T09:23:52.002Z,62.51
2018-09-30T09:26:20.495Z,62.45
2018-09-30T09:28:48.958Z,62.08
2018-09-30T09:31:17.459Z,62.59
2018-09-30T09:33:46.339Z,62.21
2018-09-30T09:36:14.946Z,61.53
2018-09-30T09:38:43.432Z,61.63
2018-09-30T09:41:12.103Z,61.36
2018-09-30T09:43:40.835Z,61.72
2018-09-30T09:46:09.267Z,61.80
2018-09-30T09:48:38.162Z,61.60
2018-09-30T09:51:06.674Z,61.27
2018-09-30T09:53:35.194Z,61.88
2018-09-30T09:56:03.969Z,62.14
2018-09-30T09:58:32.422Z,62.12
2018-09-30T10:01:06.795Z,62.01
2018-09-30T10:03:35.218Z,62.25
2018-09-30T10:06:03.646Z,62.29
2018-09-30T10:08:32.154Z,62.07
2018-09-30T10:11:00.570Z,61.60
2018-09-30T10:13:29.000Z,61.78
2018-09-30T10:15:57.785Z,61.08
2018-09-30T10:18:26.220Z,61.58
2018-09-30T10:20:54.642Z,59.47
2018-09-30T10:23:23.798Z,59.23
2018-09-30T10:25:52.238Z,59.37
2018-09-30T10:28:20.962Z,58.85
2018-09-30T10:30:49.910Z,59.34
2018-09-30T10:33:18.324Z,59.35
2018-09-30T10:35:46.727Z,59.82
2018-09-30T10:38:15.724Z,59.63
2018-09-30T10:40:44.128Z,59.43
2018-09-30T10:43:13.566Z,58.95
2018-09-30T10:45:42.434Z,58.19
2018-09-30T10:48:10.895Z,58.51
2018-09-30T10:50:39.332Z,58.66
2018-09-30T10:53:07.993Z,58.36
2018-09-30T10:55:36.387Z,58.03
2018-09-30T10:58:04.831Z,58.02
2018-09-30T11:00:33.727Z,58.62
2018-09-30T11:03:02.161Z,59.06
2018-09-30T11:05:30.575Z,59.28
2018-09-30T11:07:59.482Z,59.58
2018-09-30T11:10:27.875Z,60.20
2018-09-30T11:12:56.322Z,60.60
2018-09-30T11:15:25.259Z,61.15
2018-09-30T11:17:53.655Z,61.45
2018-09-30T11:20:22.088Z,61.79
2018-09-30T11:22:50.722Z,61.89
2018-09-30T11:25:19.185Z,62.00
2018-09-30T11:27:47.683Z,62.31
2018-09-30T11:30:16.253Z,62.51
2018-09-30T11:32:44.642Z,62.48
2018-09-30T11:35:13.077Z,62.55
2018-09-30T11:37:41.682Z,62.64
2018-09-30T11:40:10.220Z,62.27
2018-09-30T11:42:38.679Z,62.25
2018-09-30T11:45:07.622Z,62.27
2018-09-30T11:47:36.122Z,62.19
2018-09-30T11:50:04.603Z,61.95
2018-09-30T11:52:33.382Z,61.69
2018-09-30T11:55:01.830Z,61.48
2018-09-30T11:57:30.248Z,60.88
2018-09-30T11:59:58.824Z,59.92
2018-09-30T12:02:27.780Z,58.93
2018-09-30T12:04:56.193Z,58.57
2018-09-30T12:07:24.866Z,57.91
2018-09-30T12:09:53.298Z,57.47
2018-09-30T12:12:21.731Z,57.26
2018-09-30T12:14:50.607Z,56.35
2018-09-30T12:17:19.074Z,53.56
2018-09-30T12:19:47.477Z,54.28
2018-09-30T12:22:16.188Z,53.34
2018-09-30T12:24:44.583Z,53.23
2018-09-30T12:27:13.002Z,52.24
2018-09-30T12:29:41.802Z,52.18
2018-09-30T12:32:10.214Z,51.92
2018-09-30T12:34:38.645Z,50.48
2018-09-30T12:37:07.235Z,50.09
2018-09-30T12:39:35.635Z,50.56
2018-09-30T12:42:04.182Z,50.01
2018-09-30T12:44:32.779Z,51.22
2018-09-30T12:47:01.236Z,50.66
2018-09-30T12:49:29.827Z,50.30
2018-09-30T12:51:58.420Z,50.31
2018-09-30T12:54:26.815Z,51.17
2018-09-30T12:56:55.529Z,50.91
2018-09-30T12:59:24.170Z,50.26
2018-09-30T13:01:52.592Z,51.42
2018-09-30T13:04:21.182Z,52.72
2018-09-30T13:06:50.018Z,53.50
2018-09-30T13:09:18.567Z,54.35
2018-09-30T13:11:46.974Z,54.95
2018-09-30T13:14:15.491Z,55.17
2018-09-30T13:16:43.899Z,56.08
2018-09-30T13:19:12.334Z,55.49
2018-09-30T13:21:41.151Z,55.05
2018-09-30T13:24:09.877Z,55.27
2018-09-30T13:26:38.320Z,54.59
2018-09-30T13:29:07.042Z,52.94
2018-09-30T13:31:35.449Z,50.89
2018-09-30T13:34:03.874Z,52.57
2018-09-30T13:36:32.399Z,51.78
2018-09-30T13:39:00.824Z,50.74
2018-09-30T13:41:29.223Z,49.14
2018-09-30T13:43:57.950Z,48.32
2018-09-30T13:46:26.359Z,48.77
2018-09-30T13:48:54.763Z,47.96
2018-09-30T13:51:23.615Z,47.96
2018-09-30T13:53:52.016Z,46.70
2018-09-30T13:56:20.423Z,46.80
2018-09-30T13:58:49.279Z,46.42
2018-09-30T14:01:17.788Z,47.47
2018-09-30T14:03:46.211Z,48.42
2018-09-30T14:06:14.842Z,49.96
2018-09-30T14:08:43.234Z,50.55
2018-09-30T14:11:11.647Z,51.14
2018-09-30T14:13:40.455Z,51.70
2018-09-30T14:16:08.887Z,52.24
2018-09-30T14:18:37.286Z,51.60
2018-09-30T14:21:05.833Z,50.56
2018-09-30T14:23:34.283Z,49.41
2018-09-30T14:26:02.683Z,51.08
2018-09-30T14:28:31.647Z,52.21
2018-09-30T14:31:00.066Z,52.09
2018-09-30T14:33:28.472Z,51.31
2018-09-30T14:35:57.470Z,51.68
2018-09-30T14:38:25.885Z,52.75
2018-09-30T14:40:54.279Z,53.10
2018-09-30T14:43:22.878Z,53.25
2018-09-30T14:45:51.422Z,52.68
2018-09-30T14:48:19.864Z,52.60
2018-09-30T14:50:48.579Z,52.19
2018-09-30T14:53:17.220Z,51.20
2018-09-30T14:55:45.734Z,51.19
2018-09-30T14:58:14.719Z,50.63
2018-09-30T15:00:43.166Z,50.20
2018-09-30T15:03:12.997Z,51.01
2018-09-30T15:05:42.314Z,50.96
2018-09-30T15:08:10.756Z,50.52
2018-09-30T15:10:39.150Z,50.59
2018-09-30T15:13:07.995Z,51.22
2018-09-30T15:15:36.430Z,52.43
2018-09-30T15:18:04.866Z,53.58
2018-09-30T15:20:33.738Z,53.97
2018-09-30T15:23:02.163Z,54.20
2018-09-30T15:25:30.622Z,54.86
2018-09-30T15:27:59.134Z,55.48
2018-09-30T15:30:27.554Z,56.18
2018-09-30T15:32:56.029Z,56.47
2018-09-30T15:35:25.029Z,56.67
2018-09-30T15:37:53.456Z,57.02
2018-09-30T15:40:22.515Z,57.01
2018-09-30T15:42:51.061Z,57.23
2018-09-30T15:45:19.470Z,57.62
2018-09-30T15:47:48.294Z,57.73
2018-09-30T15:50:17.042Z,57.84
2018-09-30T15:52:45.558Z,57.90
2018-09-30T15:55:14.132Z,58.35
2018-09-30T15:57:42.682Z,58.51
2018-09-30T16:00:11.130Z,58.76
2018-09-30T16:02:39.627Z,58.73
2018-09-30T16:05:08.562Z,59.16
2018-09-30T16:07:37.067Z,59.55
2018-09-30T16:10:05.558Z,59.87
2018-09-30T16:12:34.286Z,60.42
2018-09-30T16:15:02.700Z,61.13
2018-09-30T16:17:31.096Z,61.65
2018-09-30T16:19:59.627Z,62.04
2018-09-30T16:22:28.029Z,63.11
2018-09-30T16:24:56.483Z,64.51
2018-09-30T16:27:24.991Z,65.23
2018-09-30T16:29:53.489Z,65.15
2018-09-30T16:32:21.908Z,66.21
2018-09-30T16:34:50.613Z,66.74
2018-09-30T16:37:19.059Z,67.17
2018-09-30T16:39:47.550Z,68.23
2018-09-30T16:42:16.444Z,67.77
2018-09-30T16:44:44.878Z,69.01
2018-09-30T16:47:13.287Z,72.77
2018-09-30T16:49:42.419Z,74.33
2018-09-30T16:52:10.936Z,74.40
2018-09-30T16:54:39.442Z,74.64
2018-09-30T16:57:08.065Z,75.45
2018-09-30T16:59:36.480Z,76.23
2018-09-30T17:02:04.919Z,76.96
2018-09-30T17:04:33.548Z,77.18
2018-09-30T17:07:02.023Z,76.86
2018-09-30T17:09:30.426Z,77.16
2018-09-30T17:11:59.892Z,77.22
2018-09-30T17:14:28.794Z,77.72
2018-09-30T17:16:57.233Z,77.77
2018-09-30T17:19:26.111Z,78.28
2018-09-30T17:21:54.710Z,77.72
2018-09-30T17:24:23.158Z,77.67
2018-09-30T17:26:51.797Z,78.08
2018-09-30T17:29:20.221Z,77.69
2018-09-30T17:31:48.638Z,78.05
2018-09-30T17:34:17.540Z,78.39
2018-09-30T17:36:45.986Z,78.43
2018-09-30T17:39:14.378Z,77.99
2018-09-30T17:41:43.037Z,78.39
2018-09-30T17:44:11.564Z,77.90
2018-09-30T17:46:39.984Z,78.34
2018-09-30T17:49:08.770Z,78.06
2018-09-30T17:51:37.347Z,78.01
2018-09-30T17:54:05.870Z,77.88
2018-09-30T17:56:34.414Z,77.90
2018-09-30T17:59:02.995Z,78.09
2018-09-30T18:01:31.438Z,77.77
2018-09-30T18:04:00.021Z,78.24
2018-09-30T18:06:28.425Z,78.01
2018-09-30T18:08:56.841Z,77.75
2018-09-30T18:11:25.754Z,78.06
2018-09-30T18:13:54.167Z,77.94
2018-09-30T18:16:22.944Z,78.05
2018-09-30T18:18:51.557Z,77.90
2018-09-30T18:21:19.972Z,78.12
2018-09-30T18:23:48.863Z,77.65
2018-09-30T18:26:17.263Z,77.72
2018-09-30T18:28:45.719Z,77.54
2018-09-30T18:31:14.162Z,78.00
2018-09-30T18:33:43.495Z,77.67
2018-09-30T18:36:12.000Z,77.62
2018-09-30T18:38:40.403Z,77.92
2018-09-30T18:41:09.002Z,77.79
2018-09-30T18:43:37.438Z,77.57
2018-09-30T18:46:06.047Z,77.95
2018-09-30T18:48:35.044Z,77.52
2018-09-30T18:51:03.662Z,77.48
2018-09-30T18:53:32.222Z,77.43
2018-09-30T18:56:00.857Z,77.25
2018-09-30T18:58:29.323Z,77.34
2018-09-30T19:00:58.079Z,77.24
2018-09-30T19:03:26.624Z,77.71
2018-09-30T19:05:55.035Z,77.48
2018-09-30T19:08:23.552Z,77.56
2018-09-30T19:10:52.106Z,77.10
2018-09-30T19:13:20.599Z,77.45
2018-09-30T19:15:49.060Z,77.08
2018-09-30T19:18:17.531Z,77.27
2018-09-30T19:20:46.085Z,77.10
2018-09-30T19:23:14.494Z,77.11
2018-09-30T19:25:43.018Z,77.08
2018-09-30T19:28:11.466Z,77.22
2018-09-30T19:30:39.886Z,77.21
2018-09-30T19:33:08.443Z,77.15
2018-09-30T19:35:36.866Z,76.94
2018-09-30T19:38:05.335Z,77.14
2018-09-30T19:40:34.046Z,77.31
2018-09-30T19:43:02.495Z,76.98
2018-09-30T19:45:30.970Z,76.97
2018-09-30T19:47:59.534Z,77.47
2018-09-30T19:50:27.991Z,76.97
2018-09-30T19:52:56.437Z,77.37
2018-09-30T19:55:25.647Z,77.24
2018-09-30T19:57:54.123Z,77.13
2018-09-30T20:00:22.575Z,77.05
2018-09-30T20:02:51.478Z,77.09
2018-09-30T20:05:19.944Z,77.26
2018-09-30T20:07:48.393Z,77.30
2018-09-30T20:10:17.011Z,77.23
2018-09-30T20:12:45.448Z,77.48
2018-09-30T20:15:13.867Z,77.29
2018-09-30T20:17:42.516Z,77.31
2018-09-30T20:20:10.935Z,77.68
2018-09-30T20:22:39.347Z,77.35
2018-09-30T20:25:08.226Z,77.35
2018-09-30T20:27:36.703Z,77.40
2018-09-30T20:30:05.342Z,77.50
2018-09-30T20:32:33.947Z,77.54
2018-09-30T20:35:02.524Z,77.48
2018-09-30T20:37:30.947Z,77.62
2018-09-30T20:39:59.479Z,77.81
2018-09-30T20:42:27.898Z,78.14
2018-09-30T20:44:56.320Z,77.90
2018-09-30T20:47:24.902Z,77.79
2018-09-30T20:49:53.331Z,77.93
2018-09-30T20:52:21.724Z,77.98
2018-09-30T20:54:50.314Z,78.06
2018-09-30T20:57:19.001Z,78.22
2018-09-30T20:59:47.418Z,77.82
2018-09-30T21:02:15.959Z,77.64
2018-09-30T21:04:44.503Z,78.12
2018-09-30T21:07:12.963Z,78.30
2018-09-30T21:09:41.936Z,78.12
2018-09-30T21:12:10.330Z,77.98
2018-09-30T21:14:38.731Z,78.05
2018-09-30T21:17:07.295Z,78.48
2018-09-30T21:19:35.698Z,78.27
2018-09-30T21:22:04.107Z,78.11
2018-09-30T21:24:32.982Z,78.15
2018-09-30T21:27:01.387Z,78.12
2018-09-30T21:29:29.802Z,78.49
2018-09-30T21:31:58.718Z,78.36
2018-09-30T21:34:27.112Z,78.43
2018-09-30T21:36:55.507Z,78.62
2018-09-30T21:39:24.170Z,78.72
2018-09-30T21:41:52.771Z,78.83
2018-09-30T21:44:21.170Z,78.89
2018-09-30T21:46:49.666Z,78.59
2018-09-30T21:49:18.059Z,78.98
2018-09-30T21:51:46.433Z,78.85
2018-09-30T21:54:14.930Z,78.99
2018-09-30T21:56:43.830Z,79.01
2018-09-30T21:59:12.374Z,78.96
2018-09-30T22:01:40.918Z,78.83
2018-09-30T22:04:09.297Z,78.82
2018-09-30T22:06:37.985Z,79.11
2018-09-30T22:09:07.431Z,79.08
2018-09-30T22:11:35.848Z,79.20
2018-09-30T22:14:04.291Z,79.17
2018-09-30T22:16:32.998Z,79.27
2018-09-30T22:19:01.429Z,79.29
2018-09-30T22:21:29.855Z,79.31
2018-09-30T22:23:58.403Z,79.30
2018-09-30T22:26:26.795Z,79.37
2018-09-30T22:28:55.555Z,79.74
2018-09-30T22:31:24.208Z,79.79
2018-09-30T22:33:52.599Z,80.05
2018-09-30T22:36:20.998Z,80.07
2018-09-30T22:38:49.916Z,80.11
2018-09-30T22:41:18.338Z,80.67
2018-09-30T22:43:46.743Z,80.16
2018-09-30T22:46:15.604Z,80.22
2018-09-30T22:48:43.982Z,80.59
2018-09-30T22:51:12.426Z,80.31
2018-09-30T22:53:41.027Z,81.00
2018-09-30T22:56:09.455Z,80.61
2018-09-30T22:58:37.846Z,80.96
2018-09-30T23:01:07.786Z,81.03
2018-09-30T23:03:36.209Z,81.17
2018-09-30T23:06:04.825Z,81.02
2018-09-30T23:08:34.098Z,80.87
2018-09-30T23:11:02.615Z,81.00
2018-09-30T23:13:31.014Z,81.01
2018-09-30T23:15:59.552Z,81.38
2018-09-30T23:18:28.020Z,81.25
2018-09-30T23:20:56.447Z,81.23
2018-09-30T23:23:25.042Z,81.45
2018-09-30T23:25:53.483Z,81.16
2018-09-30T23:28:21.879Z,81.02
2018-09-30T23:30:50.690Z,81.52
2018-09-30T23:33:19.510Z,81.56
2018-09-30T23:35:47.901Z,81.88
2018-09-30T23:38:16.423Z,81.69
2018-09-30T23:40:44.818Z,81.63
2018-09-30T23:43:13.198Z,81.78
2018-09-30T23:45:42.504Z,81.82
2018-09-30T23:48:10.915Z,81.87
2018-09-30T23:50:39.322Z,81.77
2018-09-30T23:53:07.794Z,81.96
2018-09-30T23:55:36.192Z,81.99
2018-09-30T23:58:13.751Z,81.86
